Time;durP1;ratioP1;P1;durP2;ratioP2;P2;SDS_P1;SDS_P2;PMS_P1;PMS_P2;Temp;Humidity;BMP_temperature;BMP_pressure;BME280_temperature;BME280_humidity;BME280_pressure;Samples;Min_cycle;Max_cycle;Signal;HPM_P1;HPM_P2
2022/05/27 00:00:44;;;;;;;5.03;1.55;;;;;;;;;;5053443;28;20037;-60
2022/05/27 00:03:11;;;;;;;1.80;0.98;;;;;;;;;;5071552;28;20037;-60
2022/05/27 00:05:37;;;;;;;3.45;1.20;;;;;;;;;;5053680;28;20036;-60
2022/05/27 00:08:04;;;;;;;4.07;1.00;;;;;;;;;;5052541;28;20028;-61
2022/05/27 00:10:29;;;;;;;3.13;1.00;;;;;;;;;;5062553;28;20072;-60
2022/05/27 00:12:55;;;;;;;4.53;1.17;;;;;;;;;;5063517;28;20523;-60
2022/05/27 00:15:21;;;;;;;1.25;1.00;;;;;;;;;;5058484;28;20689;-60
2022/05/27 00:17:47;;;;;;;3.67;0.95;;;;;;;;;;5048865;28;20032;-60
2022/05/27 00:20:13;;;;;;;6.60;1.27;;;;;;;;;;5066481;28;20032;-60
2022/05/27 00:22:39;;;;;;;1.30;0.90;;;;;;;;;;5061807;28;20082;-60
2022/05/27 00:25:06;;;;;;;5.47;1.20;;;;;;;;;;5069406;28;20028;-60
2022/05/27 00:27:32;;;;;;;3.90;1.05;;;;;;;;;;5062610;28;20038;-60
2022/05/27 00:29:58;;;;;;;3.63;1.08;;;;;;;;;;5064768;28;20447;-60
2022/05/27 00:32:24;;;;;;;1.70;1.00;;;;;;;;;;5058656;28;20100;-60
2022/05/27 00:34:49;;;;;;;4.07;1.00;;;;;;;;;;5054922;28;20025;-60
2022/05/27 00:37:15;;;;;;;2.42;1.13;;;;;;;;;;5057232;28;20029;-60
2022/05/27 00:39:41;;;;;;;2.10;1.10;;;;;;;;;;5067766;28;20407;-60
2022/05/27 00:42:08;;;;;;;2.53;1.15;;;;;;;;;;5061830;28;20078;-60
2022/05/27 00:44:34;;;;;;;1.48;1.25;;;;;;;;;;5064251;28;20560;-60
2022/05/27 00:47:06;;;;;;;2.47;0.98;;;;;;;;;;5063729;28;20040;-60
2022/05/27 00:49:33;;;;;;;3.35;1.15;;;;;;;;;;5055840;28;20036;-60
2022/05/27 00:52:09;;;;;;;2.72;0.90;;;;;;;;;;5068745;28;20481;-60
2022/05/27 00:54:35;;;;;;;1.75;0.93;;;;;;;;;;5058746;28;20127;-60
2022/05/27 00:57:05;;;;;;;2.60;1.20;;;;;;;;;;5061219;28;20029;-60
2022/05/27 00:59:43;;;;;;;2.13;1.05;;;;;;;;;;5067582;28;20106;-60
2022/05/27 01:02:09;;;;;;;3.95;0.93;;;;;;;;;;5062628;28;20029;-60
2022/05/27 01:04:38;;;;;;;2.28;0.90;;;;;;;;;;5055106;28;20024;-60
2022/05/27 01:07:05;;;;;;;9.55;1.52;;;;;;;;;;5059454;28;20065;-60
2022/05/27 01:09:35;;;;;;;5.50;1.20;;;;;;;;;;5054929;28;20041;-60
2022/05/27 01:12:16;;;;;;;1.63;0.70;;;;;;;;;;5055081;28;20029;-60
2022/05/27 01:15:10;;;;;;;1.55;0.98;;;;;;;;;;5069858;28;20047;-60
2022/05/27 01:17:55;;;;;;;3.00;1.10;;;;;;;;;;4976772;28;20038;-60
2022/05/27 01:20:36;;;;;;;2.78;0.90;;;;;;;;;;4980703;28;20514;-60
2022/05/27 01:23:30;;;;;;;1.20;1.10;;;;;;;;;;4980093;28;20066;-60
2022/05/27 01:26:14;;;;;;;1.55;1.00;;;;;;;;;;4978344;28;20042;-60
2022/05/27 01:29:06;;;;;;;1.45;0.95;;;;;;;;;;4977819;28;20141;-60
2022/05/27 01:31:44;;;;;;;6.90;1.08;;;;;;;;;;4887571;29;20037;-61
2022/05/27 01:34:27;;;;;;;1.05;0.90;;;;;;;;;;4890452;29;20075;-60
2022/05/27 01:37:02;;;;;;;2.08;1.10;;;;;;;;;;4876882;29;20091;-60
2022/05/27 01:39:42;;;;;;;1.35;1.00;;;;;;;;;;4887741;29;20064;-59
2022/05/27 01:42:17;;;;;;;6.00;1.00;;;;;;;;;;4887091;29;20410;-60
2022/05/27 01:45:02;;;;;;;4.88;1.25;;;;;;;;;;4888191;29;20446;-60
2022/05/27 01:47:43;;;;;;;1.35;1.17;;;;;;;;;;4889390;29;20525;-59
2022/05/27 01:50:14;;;;;;;2.30;0.90;;;;;;;;;;4888281;29;20491;-60
2022/05/27 01:52:48;;;;;;;4.00;0.98;;;;;;;;;;4885379;29;20045;-60
2022/05/27 01:55:27;;;;;;;3.45;0.82;;;;;;;;;;4931129;29;20043;-60
2022/05/27 01:58:27;;;;;;;3.05;1.15;;;;;;;;;;4941296;29;20452;-60
2022/05/27 02:00:53;;;;;;;2.42;1.02;;;;;;;;;;4930860;29;20040;-60
2022/05/27 02:03:29;;;;;;;2.15;1.00;;;;;;;;;;4937899;28;21062;-60
2022/05/27 02:06:10;;;;;;;3.67;1.10;;;;;;;;;;4931386;29;20551;-60
2022/05/27 02:08:48;;;;;;;2.25;1.20;;;;;;;;;;5009187;28;20120;-60
2022/05/27 02:11:19;;;;;;;5.03;1.10;;;;;;;;;;5060872;28;20036;-60
2022/05/27 02:14:06;;;;;;;1.20;1.10;;;;;;;;;;5071629;28;20033;-60
2022/05/27 02:16:37;;;;;;;1.42;0.73;;;;;;;;;;5074592;28;20036;-60
2022/05/27 02:19:12;;;;;;;1.65;0.82;;;;;;;;;;5061283;28;20136;-60
2022/05/27 02:21:49;;;;;;;0.98;0.80;;;;;;;;;;5052782;28;20033;-60
2022/05/27 02:24:56;;;;;;;3.50;1.17;;;;;;;;;;5061401;28;20033;-60
2022/05/27 02:27:28;;;;;;;1.98;1.10;;;;;;;;;;5064584;28;20039;-60
2022/05/27 02:30:00;;;;;;;1.35;1.10;;;;;;;;;;5059536;28;20028;-60
2022/05/27 02:32:34;;;;;;;1.98;1.17;;;;;;;;;;5058627;28;20072;-60
2022/05/27 02:35:17;;;;;;;5.78;1.08;;;;;;;;;;5062520;28;20146;-61
2022/05/27 02:37:49;;;;;;;5.88;1.52;;;;;;;;;;5057695;28;20029;-60
2022/05/27 02:40:20;;;;;;;2.53;1.20;;;;;;;;;;5059829;28;20037;-60
2022/05/27 02:42:58;;;;;;;1.42;1.13;;;;;;;;;;5055303;28;20033;-60
2022/05/27 02:45:38;;;;;;;1.95;1.10;;;;;;;;;;5058473;28;20417;-60
2022/05/27 02:48:42;;;;;;;2.00;1.05;;;;;;;;;;5051022;28;20033;-60
2022/05/27 02:51:24;;;;;;;0.93;0.77;;;;;;;;;;5057241;28;20385;-60
2022/05/27 02:53:52;;;;;;;5.72;0.98;;;;;;;;;;5061907;28;20435;-60
2022/05/27 02:56:24;;;;;;;3.53;1.52;;;;;;;;;;5054541;28;20045;-60
2022/05/27 02:58:50;;;;;;;2.08;1.05;;;;;;;;;;5052272;28;20163;-60
2022/05/27 03:01:16;;;;;;;1.58;1.05;;;;;;;;;;5061433;28;20123;-60
2022/05/27 03:03:43;;;;;;;1.80;1.08;;;;;;;;;;5064107;28;20040;-60
2022/05/27 03:06:23;;;;;;;4.45;1.30;;;;;;;;;;5074413;28;20027;-59
2022/05/27 03:09:00;;;;;;;1.48;1.10;;;;;;;;;;5073818;28;20058;-59
2022/05/27 03:11:32;;;;;;;1.30;1.00;;;;;;;;;;5056602;28;20035;-60
2022/05/27 03:14:19;;;;;;;3.50;0.98;;;;;;;;;;5054351;28;20036;-60
2022/05/27 03:17:04;;;;;;;2.63;0.98;;;;;;;;;;5056018;28;20040;-60
2022/05/27 03:19:39;;;;;;;5.15;1.23;;;;;;;;;;5052886;28;20029;-59
2022/05/27 03:22:19;;;;;;;1.83;0.95;;;;;;;;;;5053996;28;20037;-60
2022/05/27 03:25:09;;;;;;;1.65;1.17;;;;;;;;;;5055414;28;20492;-60
2022/05/27 03:27:41;;;;;;;1.05;0.80;;;;;;;;;;5053968;28;20043;-60
2022/05/27 03:30:26;;;;;;;1.67;0.88;;;;;;;;;;5054669;28;20151;-60
2022/05/27 03:33:00;;;;;;;7.78;1.50;;;;;;;;;;5063836;28;20040;-59
2022/05/27 03:36:01;;;;;;;2.17;1.38;;;;;;;;;;5059831;28;20050;-60
2022/05/27 03:38:39;;;;;;;1.63;0.98;;;;;;;;;;4995341;28;20122;-59
2022/05/27 03:41:05;;;;;;;3.13;1.10;;;;;;;;;;4997403;28;20064;-60
2022/05/27 03:43:34;;;;;;;2.33;1.20;;;;;;;;;;5000924;28;20030;-59
2022/05/27 03:46:00;;;;;;;2.22;1.00;;;;;;;;;;5003197;28;20042;-60
2022/05/27 03:48:28;;;;;;;1.20;0.93;;;;;;;;;;5001349;28;20029;-60
2022/05/27 03:51:00;;;;;;;5.13;1.10;;;;;;;;;;4981329;28;20030;-60
2022/05/27 03:54:03;;;;;;;;;;;;;;;;;;5001137;28;20044;-60
2022/05/27 03:56:12;;;;;;;1.35;1.05;;;;;;;;;;5000786;28;19956;-59
2022/05/27 03:58:38;;;;;;;2.90;0.70;;;;;;;;;;5001443;28;20124;-59
2022/05/27 04:01:04;;;;;;;1.25;0.93;;;;;;;;;;4999136;28;20246;-60
2022/05/27 04:03:29;;;;;;;1.08;1.08;;;;;;;;;;4999189;28;20056;-59
2022/05/27 04:05:55;;;;;;;1.92;1.10;;;;;;;;;;4997897;28;20070;-60
2022/05/27 04:08:20;;;;;;;1.65;1.05;;;;;;;;;;5002326;28;20110;-59
2022/05/27 04:10:46;;;;;;;2.67;1.10;;;;;;;;;;4998089;28;20104;-59
2022/05/27 04:13:12;;;;;;;3.33;1.00;;;;;;;;;;5052895;28;20047;-60
2022/05/27 04:15:38;;;;;;;1.20;0.93;;;;;;;;;;5058216;28;20031;-59
2022/05/27 04:18:04;;;;;;;2.97;1.05;;;;;;;;;;5062586;28;20020;-60
2022/05/27 04:20:30;;;;;;;5.22;1.13;;;;;;;;;;5057359;28;20036;-60
2022/05/27 04:22:56;;;;;;;4.35;1.65;;;;;;;;;;5063266;28;20115;-59
2022/05/27 04:25:22;;;;;;;3.10;1.02;;;;;;;;;;5060024;28;20032;-60
2022/05/27 04:27:48;;;;;;;0.85;0.80;;;;;;;;;;5053648;28;20040;-60
2022/05/27 04:30:15;;;;;;;6.93;1.10;;;;;;;;;;5050090;28;20052;-60
2022/05/27 04:32:41;;;;;;;1.27;1.00;;;;;;;;;;5057166;28;20363;-60
2022/05/27 04:35:08;;;;;;;3.22;1.20;;;;;;;;;;5057878;28;20079;-60
2022/05/27 04:37:34;;;;;;;1.15;1.08;;;;;;;;;;5061722;28;20040;-60
2022/05/27 04:40:01;;;;;;;3.10;0.73;;;;;;;;;;5060895;28;20041;-60
2022/05/27 04:42:28;;;;;;;2.17;1.20;;;;;;;;;;5057475;28;20037;-60
2022/05/27 04:44:55;;;;;;;2.70;1.02;;;;;;;;;;5058811;28;20465;-59
2022/05/27 04:47:20;;;;;;;2.85;0.90;;;;;;;;;;5063996;28;20503;-60
2022/05/27 04:49:56;;;;;;;4.28;0.90;;;;;;;;;;5062532;28;20025;-60
2022/05/27 04:52:31;;;;;;;2.63;1.17;;;;;;;;;;5061040;28;20035;-60
2022/05/27 04:55:02;;;;;;;2.05;1.00;;;;;;;;;;5056900;28;20102;-59
2022/05/27 04:57:32;;;;;;;1.47;1.20;;;;;;;;;;5055488;28;20049;-59
2022/05/27 04:59:59;;;;;;;2.67;1.00;;;;;;;;;;5061969;28;20281;-59
2022/05/27 05:02:25;;;;;;;3.05;1.38;;;;;;;;;;5059391;28;20040;-59
2022/05/27 05:04:52;;;;;;;0.93;0.77;;;;;;;;;;5059831;28;20028;-59
2022/05/27 05:07:21;;;;;;;2.28;0.80;;;;;;;;;;5060893;28;20781;-59
2022/05/27 05:09:47;;;;;;;3.22;1.02;;;;;;;;;;5060899;28;20032;-59
2022/05/27 05:12:13;;;;;;;1.52;1.00;;;;;;;;;;5062576;28;23841;-59
2022/05/27 05:14:40;;;;;;;2.03;0.90;;;;;;;;;;5065833;28;20028;-59
2022/05/27 05:17:07;;;;;;;3.83;1.02;;;;;;;;;;5062080;28;20031;-59
2022/05/27 05:19:34;;;;;;;3.00;1.08;;;;;;;;;;5065061;28;20043;-59
2022/05/27 05:22:00;;;;;;;3.03;1.23;;;;;;;;;;5064620;28;20040;-59
2022/05/27 05:24:26;;;;;;;1.75;1.00;;;;;;;;;;5061098;28;20033;-59
2022/05/27 05:26:51;;;;;;;4.03;1.35;;;;;;;;;;5064477;28;20036;-59
2022/05/27 05:29:18;;;;;;;1.77;1.00;;;;;;;;;;5056087;28;20029;-59
2022/05/27 05:31:43;;;;;;;2.30;1.23;;;;;;;;;;5064265;28;20114;-59
2022/05/27 05:34:09;;;;;;;4.05;1.05;;;;;;;;;;5067780;28;20033;-58
2022/05/27 05:36:35;;;;;;;2.70;0.90;;;;;;;;;;5058594;28;20119;-59
2022/05/27 05:39:02;;;;;;;7.60;1.42;;;;;;;;;;5065323;28;20561;-59
2022/05/27 05:41:32;;;;;;;3.28;1.15;;;;;;;;;;5061034;28;20025;-55
2022/05/27 05:43:58;;;;;;;1.40;0.90;;;;;;;;;;5054909;28;20029;-59
2022/05/27 05:46:25;;;;;;;2.90;1.30;;;;;;;;;;5068839;28;20039;-59
2022/05/27 05:48:50;;;;;;;2.90;0.90;;;;;;;;;;5066407;28;20024;-59
2022/05/27 05:51:17;;;;;;;1.35;0.90;;;;;;;;;;5062438;28;20035;-59
2022/05/27 05:53:43;;;;;;;2.25;1.02;;;;;;;;;;5068235;28;20033;-60
2022/05/27 05:56:09;;;;;;;5.70;1.25;;;;;;;;;;5066514;28;20039;-58
2022/05/27 05:58:37;;;;;;;3.15;0.88;;;;;;;;;;5060672;28;20097;-59
2022/05/27 06:01:03;;;;;;;1.10;0.95;;;;;;;;;;5065931;28;20036;-59
2022/05/27 06:03:29;;;;;;;3.50;1.00;;;;;;;;;;5055396;28;20028;-59
2022/05/27 06:05:54;;;;;;;0.73;0.73;;;;;;;;;;5060625;28;20028;-59
2022/05/27 06:08:20;;;;;;;2.47;1.10;;;;;;;;;;5051263;28;20394;-59
2022/05/27 06:10:46;;;;;;;1.70;1.10;;;;;;;;;;5055051;28;20032;-59
2022/05/27 06:13:13;;;;;;;4.38;1.40;;;;;;;;;;5058012;28;20040;-59
2022/05/27 06:15:39;;;;;;;3.28;1.05;;;;;;;;;;5060879;28;20063;-59
2022/05/27 06:18:06;;;;;;;6.25;0.95;;;;;;;;;;5070838;28;20388;-59
2022/05/27 06:20:34;;;;;;;3.45;1.08;;;;;;;;;;5068280;28;20070;-59
2022/05/27 06:23:02;;;;;;;4.05;1.10;;;;;;;;;;5068369;28;20073;-59
2022/05/27 06:25:28;;;;;;;7.55;1.27;;;;;;;;;;5065434;28;20159;-57
2022/05/27 06:34:23;;;;;;;3.90;1.08;;;;;;;;;;5066294;28;20514;-59
2022/05/27 06:36:07;;;;;;;2.85;1.10;;;;;;;;;;5060284;28;20546;-59
2022/05/27 06:38:36;;;;;;;1.98;1.00;;;;;;;;;;5062249;28;20037;-59
2022/05/27 06:41:03;;;;;;;1.98;0.95;;;;;;;;;;5054906;28;20051;-59
2022/05/27 06:43:29;;;;;;;4.55;1.17;;;;;;;;;;5059557;28;20028;-59
2022/05/27 06:45:54;;;;;;;5.78;1.60;;;;;;;;;;5057841;28;20493;-59
2022/05/27 06:48:20;;;;;;;1.10;0.98;;;;;;;;;;5063283;28;20515;-59
2022/05/27 06:50:46;;;;;;;4.18;1.60;;;;;;;;;;5064388;28;20024;-59
2022/05/27 06:53:11;;;;;;;3.92;1.08;;;;;;;;;;5058465;28;20037;-60
2022/05/27 06:55:38;;;;;;;3.63;1.10;;;;;;;;;;5061642;28;20132;-60
2022/05/27 06:58:03;;;;;;;3.67;1.10;;;;;;;;;;5064164;28;20108;-59
2022/05/27 07:00:29;;;;;;;12.60;1.55;;;;;;;;;;5067460;28;20036;-59
2022/05/27 07:02:55;;;;;;;3.63;1.10;;;;;;;;;;5057976;28;20030;-59
2022/05/27 07:05:21;;;;;;;6.18;1.00;;;;;;;;;;5054590;28;20036;-59
2022/05/27 07:07:49;;;;;;;3.17;1.02;;;;;;;;;;5060698;28;20148;-59
2022/05/27 07:10:14;;;;;;;4.25;1.08;;;;;;;;;;5055145;28;20028;-59
2022/05/27 07:12:40;;;;;;;2.25;1.15;;;;;;;;;;5055697;28;20035;-60
2022/05/27 07:15:07;;;;;;;5.88;1.50;;;;;;;;;;5059287;28;20021;-59
2022/05/27 07:17:32;;;;;;;6.00;1.65;;;;;;;;;;5057345;28;20029;-59
2022/05/27 07:19:58;;;;;;;10.07;2.42;;;;;;;;;;5052601;28;20032;-60
2022/05/27 07:22:25;;;;;;;10.18;1.70;;;;;;;;;;5050248;28;20086;-59
2022/05/27 07:24:51;;;;;;;2.70;1.33;;;;;;;;;;5065479;28;20569;-59
2022/05/27 07:27:17;;;;;;;15.52;2.55;;;;;;;;;;5063815;28;20028;-59
2022/05/27 07:29:42;;;;;;;8.15;1.63;;;;;;;;;;5059845;28;20037;-59
2022/05/27 07:32:09;;;;;;;7.15;1.80;;;;;;;;;;5061146;28;20032;-58
2022/05/27 07:34:35;;;;;;;1.95;0.85;;;;;;;;;;5059507;28;20032;-59
2022/05/27 07:37:00;;;;;;;1.42;0.98;;;;;;;;;;5068811;28;20496;-59
2022/05/27 07:39:26;;;;;;;4.25;1.23;;;;;;;;;;5066706;28;20028;-59
2022/05/27 07:41:52;;;;;;;8.18;1.52;;;;;;;;;;5058113;28;20029;-60
2022/05/27 07:44:17;;;;;;;11.23;2.10;;;;;;;;;;5065469;28;20396;-59
2022/05/27 07:46:43;;;;;;;6.10;1.52;;;;;;;;;;5056779;28;20021;-60
2022/05/27 07:49:09;;;;;;;2.75;1.25;;;;;;;;;;5062129;28;20090;-62
2022/05/27 07:51:35;;;;;;;1.63;0.98;;;;;;;;;;5058776;28;20100;-59
2022/05/27 07:54:00;;;;;;;4.28;1.05;;;;;;;;;;5057317;28;20040;-59
2022/05/27 07:56:26;;;;;;;2.22;1.23;;;;;;;;;;5066479;28;20427;-59
2022/05/27 07:58:52;;;;;;;5.45;0.88;;;;;;;;;;5058205;28;20507;-60
2022/05/27 08:01:18;;;;;;;1.67;1.10;;;;;;;;;;5056542;28;20024;-60
2022/05/27 08:03:48;;;;;;;6.15;1.67;;;;;;;;;;5049567;28;20029;-60
2022/05/27 08:06:17;;;;;;;6.88;1.75;;;;;;;;;;5052955;28;20085;-61
2022/05/27 08:08:43;;;;;;;11.55;1.30;;;;;;;;;;5057784;28;20032;-60
2022/05/27 08:11:10;;;;;;;3.92;1.60;;;;;;;;;;5053178;28;20036;-60
2022/05/27 08:13:39;;;;;;;4.40;1.48;;;;;;;;;;5053758;28;22129;-60
2022/05/27 08:16:06;;;;;;;5.85;1.60;;;;;;;;;;5058389;28;20535;-59
2022/05/27 08:18:33;;;;;;;3.90;1.85;;;;;;;;;;5051306;28;20043;-60
2022/05/27 08:21:00;;;;;;;2.97;1.10;;;;;;;;;;5055450;28;20029;-61
2022/05/27 08:23:28;;;;;;;3.13;1.48;;;;;;;;;;5055682;28;20029;-61
2022/05/27 08:25:56;;;;;;;5.97;1.42;;;;;;;;;;5052601;28;20024;-61
2022/05/27 08:28:24;;;;;;;4.88;1.35;;;;;;;;;;5057257;28;20033;-61
2022/05/27 08:30:51;;;;;;;3.00;1.70;;;;;;;;;;5060978;28;20032;-62
2022/05/27 08:33:19;;;;;;;2.67;1.10;;;;;;;;;;5056400;28;20035;-60
2022/05/27 08:38:34;;;;;;;3.85;1.50;;;;;;;;;;5059923;28;20029;-61
2022/05/27 08:41:21;;;;;;;4.88;2.58;;;;;;;;;;5064401;28;20031;-60
2022/05/27 08:44:17;;;;;;;4.63;1.83;;;;;;;;;;5037084;28;20129;-62
2022/05/27 08:46:43;;;;;;;3.55;1.35;;;;;;;;;;5060161;28;20532;-61
2022/05/27 08:49:17;;;;;;;10.05;1.50;;;;;;;;;;5059880;28;20036;-61
2022/05/27 08:52:11;;;;;;;12.10;1.67;;;;;;;;;;5054407;28;20033;-61
2022/05/27 08:54:46;;;;;;;5.60;1.60;;;;;;;;;;5062542;28;20048;-61
2022/05/27 09:00:04;;;;;;;10.27;1.60;;;;;;;;;;5059631;28;20036;-61
2022/05/27 09:02:42;;;;;;;5.95;1.52;;;;;;;;;;5059034;28;20029;-62
2022/05/27 09:05:18;;;;;;;6.32;2.10;;;;;;;;;;5051875;28;20123;-62
2022/05/27 09:08:05;;;;;;;4.13;1.50;;;;;;;;;;5064088;28;20033;-61
2022/05/27 09:10:43;;;;;;;3.60;1.52;;;;;;;;;;5061605;28;20780;-61
2022/05/27 09:13:12;;;;;;;4.07;1.50;;;;;;;;;;5071871;28;20035;-62
2022/05/27 09:15:47;;;;;;;3.65;2.45;;;;;;;;;;5055771;28;20566;-62
2022/05/27 09:18:25;;;;;;;4.60;1.80;;;;;;;;;;5055018;28;20024;-62
2022/05/27 09:21:00;;;;;;;4.78;1.52;;;;;;;;;;5058277;28;20028;-60
2022/05/27 09:23:48;;;;;;;7.90;1.73;;;;;;;;;;5055752;28;20484;-61
2022/05/27 09:26:19;;;;;;;4.00;1.55;;;;;;;;;;5056836;28;20071;-60
2022/05/27 09:29:03;;;;;;;3.90;1.77;;;;;;;;;;5062284;28;20032;-61
2022/05/27 09:31:46;;;;;;;4.65;1.50;;;;;;;;;;5060324;28;23558;-60
2022/05/27 09:34:13;;;;;;;5.32;1.58;;;;;;;;;;5060970;28;20048;-61
2022/05/27 09:36:44;;;;;;;9.27;1.70;;;;;;;;;;5064562;28;20133;-62
2022/05/27 09:39:13;;;;;;;4.07;2.00;;;;;;;;;;5060912;28;20381;-61
2022/05/27 09:42:06;;;;;;;9.82;1.73;;;;;;;;;;5063022;28;20036;-61
2022/05/27 09:44:38;;;;;;;13.45;2.08;;;;;;;;;;5063035;28;20064;-62
2022/05/27 09:47:05;;;;;;;12.15;2.00;;;;;;;;;;5064247;28;20029;-61
2022/05/27 09:49:31;;;;;;;4.78;1.73;;;;;;;;;;5060855;28;20032;-62
2022/05/27 09:51:58;;;;;;;9.43;1.50;;;;;;;;;;5057756;28;20037;-61
2022/05/27 09:54:46;;;;;;;7.63;1.65;;;;;;;;;;5054835;28;20588;-61
2022/05/27 09:57:13;;;;;;;5.93;1.50;;;;;;;;;;5056682;28;20059;-61
2022/05/27 09:59:43;;;;;;;7.80;1.65;;;;;;;;;;5057921;28;20077;-61
2022/05/27 10:02:19;;;;;;;7.97;1.80;;;;;;;;;;5064197;28;20052;-60
2022/05/27 10:04:58;;;;;;;10.30;1.80;;;;;;;;;;5060649;28;20044;-61
2022/05/27 10:07:38;;;;;;;7.10;1.70;;;;;;;;;;5063903;28;20044;-61
2022/05/27 10:10:26;;;;;;;3.25;1.38;;;;;;;;;;5057173;28;20044;-61
2022/05/27 10:12:53;;;;;;;7.53;1.95;;;;;;;;;;5062791;28;20077;-61
2022/05/27 10:15:34;;;;;;;5.28;2.10;;;;;;;;;;5056724;28;20037;-60
2022/05/27 10:18:22;;;;;;;8.68;2.08;;;;;;;;;;5058155;28;20024;-61
2022/05/27 10:21:01;;;;;;;6.90;2.03;;;;;;;;;;5065357;28;20168;-61
2022/05/27 10:23:35;;;;;;;13.95;2.45;;;;;;;;;;5054691;28;20060;-60
2022/05/27 10:26:23;;;;;;;8.23;1.67;;;;;;;;;;5062898;28;20186;-61
2022/05/27 10:29:14;;;;;;;7.18;2.00;;;;;;;;;;5056920;28;24517;-60
2022/05/27 10:31:55;;;;;;;5.50;1.75;;;;;;;;;;5059201;28;20056;-61
2022/05/27 10:34:40;;;;;;;8.52;1.90;;;;;;;;;;5059217;28;20119;-61
2022/05/27 10:37:38;;;;;;;5.10;1.80;;;;;;;;;;5057507;28;20086;-61
2022/05/27 10:40:36;;;;;;;5.88;1.63;;;;;;;;;;4986345;28;20498;-61
2022/05/27 10:43:24;;;;;;;12.40;2.78;;;;;;;;;;4971026;28;20117;-61
2022/05/27 10:45:53;;;;;;;7.30;2.10;;;;;;;;;;4988336;28;20129;-61
2022/05/27 10:48:28;;;;;;;9.80;1.80;;;;;;;;;;4987085;28;20061;-61
2022/05/27 10:51:42;;;;;;;3.85;1.65;;;;;;;;;;4987182;28;20119;-61
2022/05/27 10:54:32;;;;;;;7.60;1.77;;;;;;;;;;4945683;28;20045;-61
2022/05/27 11:03:21;;;;;;;11.27;2.70;;;;;;;;;;4951914;28;20131;-61
2022/05/27 11:06:00;;;;;;;8.18;1.40;;;;;;;;;;4948107;28;20047;-61
2022/05/27 11:08:33;;;;;;;6.82;1.50;;;;;;;;;;4947902;28;20113;-61
2022/05/27 11:11:13;;;;;;;9.45;1.70;;;;;;;;;;4944732;28;20047;-61
2022/05/27 11:16:58;;;;;;;11.05;1.75;;;;;;;;;;4958755;28;20038;-60
2022/05/27 11:19:58;;;;;;;10.98;2.05;;;;;;;;;;4974618;28;20030;-61
2022/05/27 11:22:42;;;;;;;8.77;1.98;;;;;;;;;;4981785;28;20392;-61
2022/05/27 11:25:42;;;;;;;6.80;1.45;;;;;;;;;;4985332;28;20495;-61
2022/05/27 11:28:27;;;;;;;3.58;1.80;;;;;;;;;;4986036;28;20033;-61
2022/05/27 11:31:03;;;;;;;9.48;1.77;;;;;;;;;;5030178;28;20106;-61
2022/05/27 11:34:04;;;;;;;17.55;2.58;;;;;;;;;;5058769;28;20045;-59
2022/05/27 11:36:40;;;;;;;11.23;2.30;;;;;;;;;;5002761;28;20049;-61
2022/05/27 11:39:47;;;;;;;14.20;2.15;;;;;;;;;;5004500;28;20045;-60
2022/05/27 11:42:47;;;;;;;6.22;2.10;;;;;;;;;;5001809;28;20084;-60
2022/05/27 11:45:21;;;;;;;11.40;2.10;;;;;;;;;;5001224;28;20029;-61
2022/05/27 11:48:02;;;;;;;16.27;2.15;;;;;;;;;;5003808;28;20050;-61
2022/05/27 11:50:56;;;;;;;11.55;2.53;;;;;;;;;;5001870;28;20418;-61
2022/05/27 11:53:49;;;;;;;11.15;2.10;;;;;;;;;;4999781;28;20034;-61
2022/05/27 11:56:35;;;;;;;10.68;3.10;;;;;;;;;;5004508;28;20050;-61
2022/05/27 11:59:07;;;;;;;11.35;2.42;;;;;;;;;;4987976;28;20097;-61
2022/05/27 12:01:41;;;;;;;7.00;2.00;;;;;;;;;;5005713;28;20066;-61
2022/05/27 12:04:17;;;;;;;11.25;1.88;;;;;;;;;;5005485;28;20423;-61
2022/05/27 12:07:05;;;;;;;12.13;2.65;;;;;;;;;;5000512;28;20038;-61
2022/05/27 12:09:43;;;;;;;8.65;2.20;;;;;;;;;;5000609;28;20045;-61
2022/05/27 12:12:16;;;;;;;11.13;2.20;;;;;;;;;;5000667;28;20156;-61
2022/05/27 12:14:49;;;;;;;10.63;2.63;;;;;;;;;;5062131;28;20122;-61
2022/05/27 12:17:20;;;;;;;8.75;2.20;;;;;;;;;;5064299;28;20434;-61
2022/05/27 12:20:00;;;;;;;7.05;2.25;;;;;;;;;;5064115;28;20028;-61
2022/05/27 12:22:32;;;;;;;9.35;1.85;;;;;;;;;;5064409;28;20025;-61
2022/05/27 12:25:06;;;;;;;8.95;2.10;;;;;;;;;;5063962;28;20649;-62
2022/05/27 12:27:34;;;;;;;13.05;2.40;;;;;;;;;;5060759;28;21081;-61
2022/05/27 12:30:00;;;;;;;9.63;2.15;;;;;;;;;;5064466;28;20124;-61
2022/05/27 12:32:29;;;;;;;7.13;2.35;;;;;;;;;;5068926;28;20030;-61
2022/05/27 12:35:32;;;;;;;11.52;2.35;;;;;;;;;;5062885;28;20036;-61
2022/05/27 12:38:09;;;;;;;8.25;1.98;;;;;;;;;;5064609;28;20040;-61
2022/05/27 12:40:51;;;;;;;9.90;2.38;;;;;;;;;;5061612;28;20116;-61
2022/05/27 12:43:17;;;;;;;11.45;1.98;;;;;;;;;;5066102;28;20070;-61
2022/05/27 12:45:51;;;;;;;10.38;2.65;;;;;;;;;;5069787;28;20484;-61
2022/05/27 12:48:31;;;;;;;5.60;2.00;;;;;;;;;;5058799;28;20107;-61
2022/05/27 12:51:14;;;;;;;10.73;2.55;;;;;;;;;;5059470;28;20025;-61
2022/05/27 12:53:51;;;;;;;4.18;1.55;;;;;;;;;;5063085;28;20032;-61
2022/05/27 13:02:13;;;;;;;17.02;2.45;;;;;;;;;;5060691;28;20083;-62
2022/05/27 13:05:05;;;;;;;14.43;2.50;;;;;;;;;;5061814;28;20111;-62
2022/05/27 13:07:35;;;;;;;9.75;2.22;;;;;;;;;;5049852;28;20024;-62
2022/05/27 13:10:16;;;;;;;10.80;2.78;;;;;;;;;;5070193;28;20482;-62
2022/05/27 13:12:42;;;;;;;15.75;2.72;;;;;;;;;;5059109;28;20103;-62
2022/05/27 13:15:12;;;;;;;6.72;2.30;;;;;;;;;;5064761;28;20638;-62
2022/05/27 13:17:45;;;;;;;13.20;2.83;;;;;;;;;;5061079;28;20369;-63
2022/05/27 13:20:22;;;;;;;12.32;2.88;;;;;;;;;;5065409;28;20560;-62
2022/05/27 13:23:01;;;;;;;11.38;2.20;;;;;;;;;;5062750;28;20125;-62
2022/05/27 13:25:34;;;;;;;12.27;2.25;;;;;;;;;;5060690;28;20087;-62
2022/05/27 13:28:04;;;;;;;7.45;2.25;;;;;;;;;;5069471;28;20394;-63
2022/05/27 13:31:03;;;;;;;8.82;2.65;;;;;;;;;;5061702;28;20030;-62
2022/05/27 13:33:37;;;;;;;14.40;2.65;;;;;;;;;;5043804;28;20049;-62
2022/05/27 13:36:16;;;;;;;10.02;2.25;;;;;;;;;;5059802;28;20125;-62
2022/05/27 13:38:51;;;;;;;10.98;2.33;;;;;;;;;;5054796;28;20112;-61
2022/05/27 13:41:17;;;;;;;7.43;2.58;;;;;;;;;;5060662;28;20033;-61
2022/05/27 13:43:47;;;;;;;7.18;2.15;;;;;;;;;;5068027;28;20029;-63
2022/05/27 13:46:18;;;;;;;12.50;2.40;;;;;;;;;;5060955;28;20040;-62
2022/05/27 13:48:44;;;;;;;11.50;2.20;;;;;;;;;;5057740;28;20032;-63
2022/05/27 13:51:13;;;;;;;11.35;2.28;;;;;;;;;;5060956;28;20051;-63
2022/05/27 13:53:41;;;;;;;7.43;2.08;;;;;;;;;;5057661;28;20036;-63
2022/05/27 13:56:34;;;;;;;15.90;2.50;;;;;;;;;;5060363;28;20170;-63
2022/05/27 13:59:05;;;;;;;11.90;2.58;;;;;;;;;;5059510;28;20032;-64
2022/05/27 14:01:37;;;;;;;13.33;2.80;;;;;;;;;;5063287;28;20037;-63
2022/05/27 14:04:41;;;;;;;11.98;2.65;;;;;;;;;;5067321;28;20354;-64
2022/05/27 14:07:44;;;;;;;13.57;2.88;;;;;;;;;;5046810;28;20049;-64
2022/05/27 14:10:17;;;;;;;10.02;2.90;;;;;;;;;;4973706;28;20038;-64
2022/05/27 14:12:44;;;;;;;6.28;2.40;;;;;;;;;;4977747;28;20043;-63
2022/05/27 14:15:13;;;;;;;16.80;2.83;;;;;;;;;;4969976;28;20038;-63
2022/05/27 14:17:44;;;;;;;9.73;2.20;;;;;;;;;;4977234;28;20498;-63
2022/05/27 14:20:12;;;;;;;;;;;;;;;;;;4977754;28;20049;-63
2022/05/27 14:22:52;;;;;;;14.63;2.45;;;;;;;;;;4972904;28;19960;-63
2022/05/27 14:25:38;;;;;;;11.00;2.42;;;;;;;;;;4970506;28;20046;-64
2022/05/27 14:28:45;;;;;;;8.43;2.20;;;;;;;;;;4975381;28;20105;-63
2022/05/27 14:31:17;;;;;;;14.70;2.97;;;;;;;;;;4971684;28;20030;-62
2022/05/27 14:34:04;;;;;;;12.50;2.63;;;;;;;;;;4972945;28;20114;-63
2022/05/27 14:36:41;;;;;;;10.52;2.63;;;;;;;;;;4978452;28;20049;-63
2022/05/27 14:39:09;;;;;;;13.15;3.00;;;;;;;;;;4974604;28;20454;-63
2022/05/27 14:41:41;;;;;;;12.90;2.67;;;;;;;;;;4975489;28;20084;-63
2022/05/27 14:44:25;;;;;;;12.75;2.33;;;;;;;;;;4974478;28;20045;-63
2022/05/27 14:47:27;;;;;;;11.23;2.53;;;;;;;;;;5054087;28;20382;-62
2022/05/27 14:50:14;;;;;;;15.50;3.03;;;;;;;;;;5057276;28;20039;-63
2022/05/27 14:52:43;;;;;;;16.33;2.55;;;;;;;;;;5053437;28;20071;-63
2022/05/27 14:55:23;;;;;;;9.88;2.25;;;;;;;;;;5058841;28;20070;-63
2022/05/27 14:58:01;;;;;;;17.08;3.00;;;;;;;;;;5068234;28;20043;-63
2022/05/27 15:00:33;;;;;;;6.13;2.28;;;;;;;;;;5067525;28;20028;-63
2022/05/27 15:03:22;;;;;;;13.55;2.72;;;;;;;;;;5057318;28;20033;-63
2022/05/27 15:05:48;;;;;;;13.75;2.22;;;;;;;;;;5064228;28;20028;-63
2022/05/27 15:08:19;;;;;;;10.15;2.47;;;;;;;;;;5056972;28;20031;-63
2022/05/27 15:11:03;;;;;;;;;;;;;;;;;;5067744;28;20044;-63
2022/05/27 15:13:31;;;;;;;15.82;3.22;;;;;;;;;;5052754;28;19935;-63
2022/05/27 15:16:16;;;;;;;18.38;2.70;;;;;;;;;;5057397;28;20044;-63
2022/05/27 15:19:05;;;;;;;12.65;2.67;;;;;;;;;;5045820;28;20047;-63
2022/05/27 15:21:33;;;;;;;6.95;2.72;;;;;;;;;;5066391;28;20039;-63
2022/05/27 15:24:03;;;;;;;13.30;2.63;;;;;;;;;;5058773;28;20021;-63
2022/05/27 15:35:35;;;;;;;17.17;2.75;;;;;;;;;;5052905;28;20032;-63
2022/05/27 15:38:01;;;;;;;10.23;2.35;;;;;;;;;;4975545;28;20038;-63
2022/05/27 15:40:29;;;;;;;17.27;3.25;;;;;;;;;;4979447;28;20034;-63
2022/05/27 15:42:55;;;;;;;8.48;2.10;;;;;;;;;;4985795;28;20034;-63
2022/05/27 15:45:22;;;;;;;12.10;2.67;;;;;;;;;;4977182;28;20026;-63
2022/05/27 15:47:48;;;;;;;9.55;2.58;;;;;;;;;;4985622;28;20038;-63
2022/05/27 15:50:16;;;;;;;10.45;2.35;;;;;;;;;;4975634;28;20109;-62
2022/05/27 15:52:41;;;;;;;9.75;2.55;;;;;;;;;;4983831;28;20590;-63
2022/05/27 15:55:09;;;;;;;5.90;2.35;;;;;;;;;;4976902;28;20051;-63